Airfield :
LOGIN :

Register | Disclaimer

   EN    FR    IT 

 










Legend :    VFR   Marginal VFR   IFR   Intensive IFR   Very Intensive IFR
Visi :
Ceiling :
>= 8 km
>= 3000ft
5 to 8 km
1000 to 3000 ft
1500m to 5 km
500 to 1000 ft
800 to 1500m
200 to 500 ft
< 800m
< 200 ft
Symbols :   Thunderstorms  Fog  Heavy snow  Heavy precipitations  Wind > 20 kt
SIGMETs :     Misc.  Thunderstorms  Icing  Turbulence  Mountain Waves  Volcanic Ashes






- Airport Elevation : 502 ft
- IATA code : ORK


EICK - Cork

CURRENT METAR :
  • 250000Z 26008KT 9999 BKN005 14/14 Q1012 NOSIG

EXPIRED METARs :
  • 242330Z 25009KT 9999 BKN004 14/14 Q1012 NOSIG
  • 242300Z 25010KT 9999 BKN005 14/14 Q1012 NOSIG
  • 242230Z 23006KT 9999 BKN005 15/14 Q1012 NOSIG
  • 242200Z 23007KT 9999 BKN005 15/14 Q1012 NOSIG
  • 242130Z 24006KT 9999 BKN005 15/14 Q1012 NOSIG
  • 242100Z 25007KT 9999 BKN005 15/15 Q1012 TEMPO 4000 -RADZ BKN004
  • 242030Z 24007KT 9999 BKN007 16/15 Q1012 TEMPO 4000 -RADZ BKN004
  • 242000Z 23007KT 9999 BKN007 16/15 Q1012 TEMPO 4000 -RADZ BKN004

TAF TAF EICK
Valid from the 25 at 00:00 until the 26 at 00:00 UTC


242300Z 2500/2524 24009KT 9999 SCT005 BKN015
TEMPO 2500/2509 BKN005
PROB40
TEMPO 2500/2509 3000 -RA BR
PROB30
TEMPO 2514/2516 -SHRA BKN010
BECMG 2515/2517 27010KT



MET'MAP, your aeronautical weather chart ! - Copyright ORBIFLY December 2007 - Disclaimer

ORBIFLY MET'MAP TEAM :

Programming & Development : Alexandra Zaïnal
Original concept : Baudouin d'Aumeries
Technical & hardware support : Manuel Goepfert
Assistance : Marc-Olivier Méhu




SOURCES & CREDITS :

   NOAA